Time;durP1;ratioP1;P1;durP2;ratioP2;P2;SDS_P1;SDS_P2;PMS_P1;PMS_P2;Temp;Humidity;BMP_temperature;BMP_pressure;BME280_temperature;BME280_humidity;BME280_pressure;Samples;Min_cycle;Max_cycle;Signal;HPM_P1;HPM_P2
2021/07/12 00:00:53;;;;;;;15.93;6.65;;;16.00;96.00;;;;;;4920940;29;20494;-84
2021/07/12 00:03:19;;;;;;;15.85;6.32;;;15.90;95.90;;;;;;4920991;29;20497;-84
2021/07/12 00:05:45;;;;;;;18.15;6.55;;;15.90;96.00;;;;;;4938151;29;20031;-83
2021/07/12 00:08:11;;;;;;;18.88;7.82;;;15.90;96.00;;;;;;4937918;29;20039;-84
2021/07/12 00:10:37;;;;;;;24.85;8.20;;;15.90;96.00;;;;;;4920918;29;20420;-84
2021/07/12 00:13:03;;;;;;;25.17;8.80;;;15.80;96.10;;;;;;4937783;29;20388;-84
2021/07/12 00:15:32;;;;;;;25.20;8.45;;;15.90;96.20;;;;;;4920930;29;20023;-84
2021/07/12 00:17:59;;;;;;;27.33;9.18;;;15.80;96.10;;;;;;4936922;29;20048;-84
2021/07/12 00:20:47;;;;;;;26.73;8.77;;;15.80;96.10;;;;;;4920738;29;20047;-86
2021/07/12 00:23:22;;;;;;;24.52;8.77;;;15.80;96.20;;;;;;4920941;29;20036;-86
2021/07/12 00:25:48;;;;;;;21.88;8.63;;;15.80;96.10;;;;;;4937661;29;20392;-85
2021/07/12 00:28:17;;;;;;;26.38;8.95;;;15.90;96.20;;;;;;4919970;29;20036;-85
2021/07/12 00:30:43;;;;;;;23.75;9.45;;;15.90;96.10;;;;;;4921050;29;20031;-86
2021/07/12 00:33:12;;;;;;;27.13;9.73;;;15.90;96.20;;;;;;4920411;29;20032;-85
2021/07/12 00:35:37;;;;;;;26.50;9.07;;;15.80;96.30;;;;;;4923602;29;20448;-83
2021/07/12 00:38:12;;;;;;;23.55;8.15;;;15.90;96.30;;;;;;4937366;29;20116;-86
2021/07/12 00:41:03;;;;;;;22.02;8.48;;;15.80;96.20;;;;;;4921232;29;20039;-86
2021/07/12 00:43:41;;;;;;;17.05;7.78;;;15.90;96.20;;;;;;4920100;29;20039;-86
2021/07/12 00:46:15;;;;;;;17.63;8.55;;;15.80;96.10;;;;;;4920718;29;20023;-86
2021/07/12 00:48:48;;;;;;;20.40;7.67;;;15.70;96.20;;;;;;4920384;29;20488;-86
2021/07/12 00:51:16;;;;;;;19.33;7.60;;;15.70;95.90;;;;;;4920199;29;20028;-86
2021/07/12 00:53:55;;;;;;;19.70;7.65;;;15.70;96.00;;;;;;4920237;29;20038;-86
2021/07/12 00:56:23;;;;;;;18.55;8.35;;;15.60;96.10;;;;;;4937385;29;20465;-86
2021/07/12 00:58:49;;;;;;;25.23;9.95;;;15.70;96.20;;;;;;4936637;29;20398;-86
2021/07/12 01:01:15;;;;;;;23.48;9.55;;;15.60;96.10;;;;;;4919581;29;20079;-85
2021/07/12 01:03:40;;;;;;;33.83;9.70;;;15.60;96.10;;;;;;4919883;29;20024;-84
2021/07/12 01:06:06;;;;;;;22.95;9.20;;;15.60;96.20;;;;;;4919754;29;20034;-84
2021/07/12 01:08:32;;;;;;;25.23;9.38;;;15.50;96.10;;;;;;4936928;29;20043;-85
2021/07/12 01:11:21;;;;;;;24.33;8.73;;;15.50;96.10;;;;;;4937364;29;20062;-85
2021/07/12 01:14:05;;;;;;;22.80;8.25;;;15.50;96.10;;;;;;4920570;29;20036;-85
2021/07/12 01:16:58;;;;;;;23.10;7.68;;;15.40;96.00;;;;;;4937523;29;20027;-85
2021/07/12 01:19:50;;;;;;;19.23;7.68;;;15.30;96.00;;;;;;4936870;29;20468;-84
2021/07/12 01:22:21;;;;;;;17.77;7.80;;;15.30;96.10;;;;;;4936443;29;20543;-85
2021/07/12 01:25:37;;;;;;;18.23;7.05;;;15.20;96.10;;;;;;4936822;29;20055;-85
2021/07/12 01:28:21;;;;;;;19.08;7.20;;;15.20;96.10;;;;;;4919581;29;20043;-85
2021/07/12 01:31:31;;;;;;;15.45;7.10;;;15.10;96.10;;;;;;4936807;29;20418;-85
2021/07/12 01:34:09;;;;;;;14.98;6.95;;;15.10;96.00;;;;;;4935630;29;20035;-85
2021/07/12 01:36:45;;;;;;;18.55;7.40;;;15.10;96.20;;;;;;4922470;29;20055;-85
2021/07/12 01:39:27;;;;;;;19.02;7.63;;;15.10;96.30;;;;;;4919512;29;20380;-85
2021/07/12 01:41:53;;;;;;;19.65;7.03;;;15.10;96.20;;;;;;4936344;29;20036;-84
2021/07/12 01:44:40;;;;;;;34.13;9.43;;;15.10;96.30;;;;;;4936377;29;20026;-85
2021/07/12 01:47:07;;;;;;;25.67;9.38;;;15.10;96.30;;;;;;4936124;29;20036;-85
2021/07/12 01:49:49;;;;;;;24.55;8.85;;;15.10;96.30;;;;;;4919339;29;20562;-85
2021/07/12 01:52:41;;;;;;;28.42;9.13;;;15.00;96.40;;;;;;4919111;29;20027;-85
2021/07/12 01:55:22;;;;;;;19.90;8.77;;;15.10;96.30;;;;;;4893891;29;20039;-85
2021/07/12 01:58:14;;;;;;;21.30;8.60;;;15.10;96.30;;;;;;4919353;29;20062;-84
2021/07/12 02:00:45;;;;;;;22.42;8.40;;;15.10;96.40;;;;;;4936060;29;20023;-84
2021/07/12 02:03:15;;;;;;;22.98;8.57;;;15.10;96.50;;;;;;4919142;29;20024;-84
2021/07/12 02:05:42;;;;;;;27.25;10.00;;;15.10;96.50;;;;;;4936295;29;20019;-85
2021/07/12 02:08:17;;;;;;;27.85;9.90;;;15.10;96.30;;;;;;4918885;29;20448;-85
2021/07/12 02:10:46;;;;;;;22.02;8.98;;;15.10;96.30;;;;;;4918896;29;20031;-85
2021/07/12 02:13:17;;;;;;;25.85;11.93;;;15.10;96.40;;;;;;4919446;29;20396;-86
2021/07/12 02:15:48;;;;;;;33.53;8.82;;;15.10;96.50;;;;;;4935148;29;20488;-86
2021/07/12 02:18:19;;;;;;;21.13;8.63;;;15.10;96.50;;;;;;4936349;29;20115;-86
2021/07/12 02:20:58;;;;;;;19.70;8.52;;;15.10;96.50;;;;;;4919316;29;20024;-86
2021/07/12 02:23:36;;;;;;;50.55;10.00;;;15.10;96.50;;;;;;4919201;29;20043;-86
2021/07/12 02:26:08;;;;;;;30.23;7.80;;;15.10;96.40;;;;;;4918981;29;20077;-86
2021/07/12 02:28:42;;;;;;;27.00;8.18;;;15.10;96.40;;;;;;4919302;29;20106;-86
2021/07/12 02:31:15;;;;;;;25.08;7.80;;;15.20;96.50;;;;;;4918842;29;20110;-86
2021/07/12 02:33:47;;;;;;;21.67;7.95;;;15.20;96.60;;;;;;4918818;29;20059;-86
2021/07/12 02:36:16;;;;;;;24.45;9.13;;;15.20;96.60;;;;;;4921595;29;20034;-86
2021/07/12 02:39:04;;;;;;;17.85;8.13;;;15.30;96.50;;;;;;4918738;29;20027;-86
2021/07/12 02:41:31;;;;;;;21.40;8.55;;;15.20;96.40;;;;;;4920763;29;20024;-85
2021/07/12 02:44:00;;;;;;;46.40;10.60;;;15.20;96.40;;;;;;4922255;29;20374;-84
2021/07/12 02:46:28;;;;;;;29.05;8.48;;;15.10;96.40;;;;;;4938683;29;20111;-84
2021/07/12 02:48:58;;;;;;;23.33;7.95;;;15.20;96.50;;;;;;4939252;29;20040;-83
2021/07/12 02:51:47;;;;;;;25.48;9.07;;;15.10;96.50;;;;;;4939316;29;20574;-84
2021/07/12 02:54:18;;;;;;;28.02;10.00;;;15.10;96.40;;;;;;4939236;29;20031;-83
2021/07/12 02:56:45;;;;;;;50.38;11.85;;;15.10;96.50;;;;;;4939272;29;20511;-84
2021/07/12 02:59:15;;;;;;;39.40;12.10;;;15.10;96.60;;;;;;4938795;29;20052;-86
2021/07/12 03:01:41;;;;;;;55.58;12.27;;;15.20;96.60;;;;;;4922384;29;20028;-85
2021/07/12 03:04:12;;;;;;;76.25;13.80;;;15.20;96.70;;;;;;4939492;29;20035;-86
2021/07/12 03:06:38;;;;;;;58.45;13.85;;;15.20;96.60;;;;;;4939474;29;20028;-85
2021/07/12 03:09:05;;;;;;;38.80;11.38;;;15.20;96.50;;;;;;4921608;29;20053;-84
2021/07/12 03:11:43;;;;;;;54.08;11.50;;;15.20;96.40;;;;;;4939200;29;20035;-84
2021/07/12 03:14:13;;;;;;;51.67;11.00;;;15.20;96.40;;;;;;4921747;29;20048;-85
2021/07/12 03:16:39;;;;;;;43.33;11.65;;;15.20;96.40;;;;;;4938904;29;20075;-85
2021/07/12 03:19:09;;;;;;;28.45;10.10;;;15.10;96.50;;;;;;4921827;29;20083;-85
2021/07/12 03:21:43;;;;;;;47.70;9.60;;;15.10;96.50;;;;;;4938827;29;20020;-84
2021/07/12 03:24:09;;;;;;;39.03;9.32;;;15.10;96.40;;;;;;4938860;29;20063;-85
2021/07/12 03:26:40;;;;;;;36.70;9.40;;;15.10;96.50;;;;;;4938631;29;20063;-85
2021/07/12 03:29:07;;;;;;;31.17;9.45;;;15.00;96.50;;;;;;4938387;29;20090;-85
2021/07/12 03:31:37;;;;;;;21.63;8.73;;;15.10;96.60;;;;;;4921621;29;20038;-85
2021/07/12 03:34:03;;;;;;;27.00;8.02;;;15.10;96.60;;;;;;4921853;29;20406;-84
2021/07/12 03:36:31;;;;;;;19.75;6.95;;;15.10;96.50;;;;;;4924331;29;20062;-84
2021/07/12 03:38:57;;;;;;;21.13;7.72;;;15.10;96.50;;;;;;4921446;29;20031;-85
2021/07/12 03:41:23;;;;;;;18.25;7.22;;;15.10;96.40;;;;;;4938201;29;20030;-84
2021/07/12 03:43:49;;;;;;;14.13;6.82;;;15.10;96.40;;;;;;4921388;29;20131;-84
2021/07/12 03:46:16;;;;;;;16.17;7.30;;;15.00;96.40;;;;;;4938381;29;20055;-84
2021/07/12 03:48:44;;;;;;;16.15;7.35;;;15.10;96.60;;;;;;4921578;29;20036;-85
2021/07/12 03:51:31;;;;;;;22.92;8.13;;;15.10;96.50;;;;;;4921370;29;20490;-85
2021/07/12 03:53:57;;;;;;;18.35;7.03;;;15.10;96.50;;;;;;4937265;29;20051;-86
2021/07/12 03:56:22;;;;;;;21.95;7.40;;;15.10;96.50;;;;;;4921360;29;20527;-86
2021/07/12 03:58:50;;;;;;;14.32;6.32;;;15.00;96.50;;;;;;4919896;29;20493;-86
2021/07/12 04:01:22;;;;;;;18.20;7.72;;;14.90;96.40;;;;;;4920905;29;20039;-86
2021/07/12 04:03:54;;;;;;;16.90;7.05;;;15.00;96.50;;;;;;4920843;29;20031;-84
2021/07/12 04:06:23;;;;;;;22.73;8.48;;;15.00;96.50;;;;;;4938281;29;20106;-85
2021/07/12 04:08:49;;;;;;;30.33;9.85;;;15.10;96.50;;;;;;4938259;29;20071;-86
2021/07/12 04:11:18;;;;;;;30.05;10.48;;;15.10;96.60;;;;;;4921074;29;20066;-85
2021/07/12 04:13:46;;;;;;;27.35;9.60;;;15.10;96.70;;;;;;4921326;29;20019;-85
2021/07/12 04:16:12;;;;;;;47.65;11.48;;;15.20;96.60;;;;;;4920450;29;20028;-86
2021/07/12 04:18:38;;;;;;;41.30;11.68;;;15.20;96.70;;;;;;4937896;29;20039;-85
2021/07/12 04:21:04;;;;;;;39.70;11.20;;;15.20;96.60;;;;;;4938015;29;20075;-85
2021/07/12 04:23:30;;;;;;;29.17;9.63;;;15.30;96.60;;;;;;4920632;29;20035;-85
2021/07/12 04:25:59;;;;;;;38.33;9.75;;;15.30;96.70;;;;;;4937858;29;20043;-85
2021/07/12 04:28:25;;;;;;;27.88;8.52;;;15.10;96.60;;;;;;4937318;29;20429;-85
2021/07/12 04:30:51;;;;;;;32.55;8.60;;;15.30;96.70;;;;;;4920760;29;20020;-85
2021/07/12 04:33:43;;;;;;;23.30;7.18;;;15.40;96.80;;;;;;4937516;29;20031;-86
2021/07/12 04:36:24;;;;;;;16.00;7.25;;;15.50;96.80;;;;;;4923582;29;20107;-86
2021/07/12 04:39:03;;;;;;;21.15;7.60;;;15.50;96.60;;;;;;4920932;29;20044;-86
2021/07/12 04:41:32;;;;;;;20.02;7.85;;;15.60;96.70;;;;;;4920469;29;20052;-85
2021/07/12 04:50:33;;;;;;;20.42;7.20;;;15.60;96.60;;;;;;4937076;29;20040;-87
2021/07/12 04:53:29;;;;;;;18.15;7.35;;;15.70;96.70;;;;;;4937144;29;20026;-86
2021/07/12 04:55:57;;;;;;;12.93;5.85;;;15.70;96.40;;;;;;4920077;29;20031;-86
2021/07/12 04:58:35;;;;;;;12.48;6.00;;;15.70;96.30;;;;;;4919459;29;20047;-85
2021/07/12 05:01:07;;;;;;;11.00;5.30;;;15.60;96.40;;;;;;4937200;29;20031;-86
2021/07/12 05:03:33;;;;;;;13.00;6.35;;;15.70;96.40;;;;;;4936652;29;20036;-85
2021/07/12 05:06:00;;;;;;;17.23;6.50;;;15.70;96.60;;;;;;4919551;29;20031;-85
2021/07/12 05:08:26;;;;;;;16.55;7.13;;;15.70;96.60;;;;;;4919748;29;20036;-86
2021/07/12 05:11:03;;;;;;;13.75;7.07;;;15.70;96.60;;;;;;4920046;29;20024;-86
2021/07/12 05:13:44;;;;;;;15.50;7.43;;;15.70;96.60;;;;;;4919816;29;20035;-85
2021/07/12 05:16:27;;;;;;;;;;;;;;;;;;;;;
2021/07/12 05:18:55;;;;;;;14.15;7.70;;;15.90;96.70;;;;;;4936925;29;20038;-87
2021/07/12 05:21:30;;;;;;;14.25;6.15;;;16.00;96.80;;;;;;4920040;29;20059;-87
2021/07/12 05:24:11;;;;;;;11.38;5.70;;;16.10;96.70;;;;;;4936842;29;20031;-87
2021/07/12 05:26:39;;;;;;;13.32;6.00;;;16.10;96.70;;;;;;4919838;29;20469;-86
2021/07/12 05:29:08;;;;;;;11.30;5.68;;;16.10;96.60;;;;;;4919328;29;20031;-85
2021/07/12 05:31:34;;;;;;;11.70;6.07;;;16.20;96.50;;;;;;4936646;29;20038;-84
2021/07/12 05:33:59;;;;;;;17.80;5.93;;;16.30;96.80;;;;;;4919510;29;20392;-83
2021/07/12 05:36:25;;;;;;;9.73;5.50;;;16.40;97.00;;;;;;4939368;29;20042;-82
2021/07/12 05:38:51;;;;;;;11.05;5.93;;;16.50;97.00;;;;;;4923335;29;20388;-88
2021/07/12 05:41:17;;;;;;;9.45;5.40;;;16.50;96.60;;;;;;4940600;29;20058;-88
2021/07/12 05:43:42;;;;;;;10.52;6.20;;;16.60;96.60;;;;;;4940298;29;20027;-87
2021/07/12 05:46:08;;;;;;;10.82;5.88;;;16.60;96.70;;;;;;4919981;29;20027;-81
2021/07/12 05:48:34;;;;;;;11.50;6.50;;;16.70;96.90;;;;;;4955611;29;20031;-82
2021/07/12 05:50:59;;;;;;;12.38;6.50;;;16.80;96.80;;;;;;4956385;29;20036;-83
2021/07/12 05:53:25;;;;;;;13.35;7.28;;;16.80;96.70;;;;;;4955936;29;20044;-81
2021/07/12 05:55:51;;;;;;;12.88;7.35;;;16.70;96.60;;;;;;4955703;29;20027;-80
2021/07/12 05:58:17;;;;;;;16.75;7.72;;;16.90;96.70;;;;;;4938528;29;20508;-80
2021/07/12 06:00:43;;;;;;;12.98;7.40;;;17.00;97.00;;;;;;4944897;29;20126;-80
2021/07/12 06:03:08;;;;;;;13.80;7.57;;;17.20;97.20;;;;;;4936807;29;20023;-80
2021/07/12 06:05:34;;;;;;;12.52;6.97;;;17.20;96.70;;;;;;4936640;29;20034;-80
2021/07/12 06:08:00;;;;;;;13.48;7.05;;;17.30;96.90;;;;;;4937127;29;20031;-79
2021/07/12 06:10:26;;;;;;;17.00;7.20;;;17.50;96.90;;;;;;4936997;29;20060;-80
2021/07/12 06:12:51;;;;;;;12.60;7.72;;;17.50;97.10;;;;;;4936961;29;20027;-79
2021/07/12 06:15:17;;;;;;;14.30;7.07;;;17.70;97.30;;;;;;4936834;29;20032;-80
2021/07/12 06:17:45;;;;;;;11.43;6.75;;;17.80;96.90;;;;;;4940275;29;20045;-83
2021/07/12 06:20:15;;;;;;;11.57;6.65;;;18.00;97.00;;;;;;4925788;29;20023;-89
2021/07/12 06:22:42;;;;;;;11.48;6.70;;;18.00;96.80;;;;;;4936795;29;20038;-91
2021/07/12 06:25:11;;;;;;;10.45;6.55;;;18.10;96.70;;;;;;4948464;29;20028;-86
2021/07/12 06:27:38;;;;;;;12.55;7.00;;;18.10;96.90;;;;;;4941809;29;20043;-85
2021/07/12 06:30:13;;;;;;;12.40;6.97;;;18.30;96.80;;;;;;4959002;29;20164;-87
2021/07/12 06:32:59;;;;;;;12.05;6.97;;;18.40;96.80;;;;;;4959556;29;20027;-87
2021/07/12 06:35:30;;;;;;;12.80;7.05;;;18.50;96.70;;;;;;4935273;29;20059;-87
2021/07/12 06:37:56;;;;;;;11.52;6.88;;;18.60;97.10;;;;;;4923150;29;20030;-85
2021/07/12 06:40:22;;;;;;;11.75;6.90;;;18.70;97.00;;;;;;4939483;29;20032;-85
2021/07/12 06:42:49;;;;;;;10.90;7.03;;;18.80;96.80;;;;;;4923551;29;20454;-84
2021/07/12 06:45:15;;;;;;;11.80;7.03;;;18.90;96.90;;;;;;4938898;29;20031;-85
2021/07/12 06:47:40;;;;;;;11.52;7.25;;;18.80;97.00;;;;;;4957532;29;20486;-83
2021/07/12 06:50:07;;;;;;;11.55;6.60;;;19.10;97.00;;;;;;4957530;29;20039;-84
2021/07/12 06:52:33;;;;;;;10.60;6.28;;;19.40;97.00;;;;;;4955846;29;20029;-85
2021/07/12 06:55:05;;;;;;;11.27;6.85;;;19.50;96.90;;;;;;4958824;29;20102;-86
2021/07/12 06:57:33;;;;;;;10.80;6.50;;;19.50;96.70;;;;;;4941468;29;20031;-86
2021/07/12 07:00:05;;;;;;;10.98;6.28;;;19.60;96.80;;;;;;4957393;29;20459;-87
2021/07/12 07:02:35;;;;;;;10.00;6.20;;;19.80;96.80;;;;;;4958468;29;20030;-86
2021/07/12 07:05:20;;;;;;;11.38;6.25;;;20.00;97.00;;;;;;4941373;29;20034;-87
2021/07/12 07:07:45;;;;;;;;;;;20.10;96.90;;;;;;4956523;29;20122;-87
2021/07/12 07:10:32;;;;;;;11.90;6.63;;;20.20;96.80;;;;;;4941595;29;19968;-88
2021/07/12 07:13:07;;;;;;;11.50;5.97;;;20.30;96.60;;;;;;4957784;29;20118;-86
2021/07/12 07:35:04;;;;;;;10.98;6.70;;;21.00;96.20;;;;;;4974873;28;20051;-87
2021/07/12 07:46:08;;;;;;;10.68;5.97;;;20.90;96.10;;;;;;5149715;23;20109;-88
2021/07/12 07:48:41;;;;;;;9.50;5.72;;;20.80;95.80;;;;;;4961081;28;20046;-89
2021/07/12 08:04:19;;;;;;;8.95;4.90;;;20.70;96.40;;;;;;5079125;23;20052;-94
2021/07/12 08:07:21;;;;;;;8.32;4.35;;;20.80;96.30;;;;;;4946150;29;20027;-92
2021/07/12 08:20:33;;;;;;;7.30;3.80;;;21.20;96.50;;;;;;4870743;29;20051;-90
2021/07/12 08:29:05;;;;;;;5.85;3.17;;;21.60;96.40;;;;;;4957561;29;20089;-94
2021/07/12 08:32:16;;;;;;;6.75;3.33;;;21.60;96.50;;;;;;4955785;29;20019;-90
2021/07/12 08:34:42;;;;;;;6.57;3.40;;;21.70;96.40;;;;;;4945724;29;20043;-89
2021/07/12 08:39:43;;;;;;;5.65;3.28;;;21.60;96.40;;;;;;5051649;23;20090;-88
2021/07/12 08:42:11;;;;;;;5.53;3.00;;;21.70;96.60;;;;;;4957087;29;20485;-86
2021/07/12 08:44:57;;;;;;;6.13;3.25;;;21.80;96.40;;;;;;4957681;29;20027;-89
2021/07/12 08:47:26;;;;;;;6.78;3.20;;;21.90;96.40;;;;;;4925288;29;20063;-85
2021/07/12 08:49:52;;;;;;;5.38;2.80;;;21.90;96.40;;;;;;4939588;29;20457;-87
2021/07/12 08:52:20;;;;;;;5.40;2.95;;;21.90;96.40;;;;;;4956777;29;20054;-87
2021/07/12 08:54:45;;;;;;;4.32;2.55;;;22.00;96.40;;;;;;4956600;29;20148;-88
2021/07/12 08:57:11;;;;;;;4.82;2.70;;;22.10;96.60;;;;;;4939396;29;20049;-89
2021/07/12 08:59:41;;;;;;;5.80;2.80;;;22.20;96.70;;;;;;4939396;29;20069;-88
2021/07/12 09:02:12;;;;;;;4.28;2.50;;;22.30;96.80;;;;;;4939320;29;20110;-88
2021/07/12 09:04:49;;;;;;;5.50;2.70;;;22.40;96.80;;;;;;4939075;29;20023;-92
2021/07/12 09:07:23;;;;;;;7.82;2.70;;;22.50;96.20;;;;;;4939335;29;20074;-89
2021/07/12 09:10:11;;;;;;;5.13;2.55;;;22.40;96.20;;;;;;4939177;29;20111;-87
2021/07/12 09:12:46;;;;;;;3.85;2.40;;;22.50;96.60;;;;;;4956234;29;20023;-89
2021/07/12 09:15:16;;;;;;;4.22;2.28;;;22.70;96.80;;;;;;4939496;29;20035;-89
2021/07/12 09:17:51;;;;;;;4.43;2.42;;;22.80;96.60;;;;;;4923548;29;20031;-89
2021/07/12 09:20:28;;;;;;;2.80;1.90;;;22.90;96.50;;;;;;4939597;29;20035;-89
2021/07/12 09:22:55;;;;;;;3.95;2.00;;;23.00;96.50;;;;;;4939944;29;20387;-89
2021/07/12 09:25:20;;;;;;;2.78;1.90;;;23.10;96.60;;;;;;4924905;29;20032;-90
2021/07/12 09:27:46;;;;;;;3.65;2.03;;;23.10;96.50;;;;;;4940425;29;20608;-89
2021/07/12 09:30:14;;;;;;;2.28;1.70;;;23.10;96.40;;;;;;4943721;29;20467;-90
2021/07/12 09:32:43;;;;;;;3.72;2.05;;;23.20;96.50;;;;;;4943319;29;20023;-89
2021/07/12 09:35:10;;;;;;;7.50;2.00;;;23.20;96.40;;;;;;4942389;29;20023;-89
2021/07/12 09:37:39;;;;;;;2.30;1.83;;;23.30;96.50;;;;;;4942897;29;20388;-89
2021/07/12 09:40:09;;;;;;;2.67;1.80;;;23.40;96.70;;;;;;4944435;29;20035;-90
2021/07/12 09:42:38;;;;;;;3.00;1.70;;;23.50;96.70;;;;;;4944020;29;20031;-90
2021/07/12 09:45:08;;;;;;;4.72;2.00;;;23.60;96.70;;;;;;4944186;29;20028;-89
2021/07/12 09:47:35;;;;;;;2.33;1.80;;;23.70;96.60;;;;;;4961355;29;20058;-90
2021/07/12 09:50:05;;;;;;;3.38;1.98;;;23.90;96.70;;;;;;4960447;28;20031;-90
2021/07/12 09:52:59;;;;;;;4.13;1.70;;;24.00;96.70;;;;;;4942393;29;20527;-91
2021/07/12 09:55:25;;;;;;;3.30;2.10;;;24.10;96.60;;;;;;4943534;29;20079;-89
2021/07/12 09:58:16;;;;;;;3.10;1.80;;;24.20;96.70;;;;;;4944754;29;20031;-90
2021/07/12 10:00:50;;;;;;;2.67;1.88;;;24.40;96.60;;;;;;4942864;29;20074;-93
2021/07/12 10:03:17;;;;;;;4.40;1.88;;;24.50;96.70;;;;;;4943216;29;20027;-90
2021/07/12 10:05:44;;;;;;;3.85;1.73;;;24.60;96.70;;;;;;4944576;29;20027;-91
2021/07/12 10:08:11;;;;;;;3.72;1.92;;;24.70;96.50;;;;;;4942585;29;20034;-91
2021/07/12 10:11:04;;;;;;;3.85;1.80;;;24.80;96.70;;;;;;4961135;29;20090;-87
2021/07/12 10:13:30;;;;;;;3.75;2.05;;;25.00;96.50;;;;;;4941892;29;20074;-88
2021/07/12 10:15:56;;;;;;;2.25;1.65;;;25.10;96.60;;;;;;4941242;29;20063;-89
2021/07/12 10:18:22;;;;;;;2.63;1.80;;;25.20;96.70;;;;;;4939669;29;20404;-89
2021/07/12 10:20:53;;;;;;;2.53;1.60;;;25.40;96.60;;;;;;4941048;29;20026;-90
2021/07/12 10:23:22;;;;;;;2.80;1.80;;;25.50;96.30;;;;;;4939573;29;20023;-90
2021/07/12 10:25:55;;;;;;;3.08;1.70;;;25.60;96.60;;;;;;4955968;29;20026;-92
2021/07/12 10:28:38;;;;;;;1.45;1.25;;;25.70;96.70;;;;;;4938733;29;20451;-91
2021/07/12 10:31:23;;;;;;;1.83;1.55;;;26.00;96.90;;;;;;4938185;29;20031;-91
2021/07/12 10:33:51;;;;;;;3.13;1.60;;;26.20;97.00;;;;;;4939226;29;20379;-91
2021/07/12 10:36:37;;;;;;;4.88;1.85;;;26.50;97.00;;;;;;4935581;29;20034;-91
2021/07/12 10:39:12;;;;;;;1.58;1.48;;;26.70;96.90;;;;;;4938596;29;20053;-91
2021/07/12 10:41:48;;;;;;;2.83;1.52;;;26.80;96.70;;;;;;4955716;29;20033;-87
2021/07/12 10:44:14;;;;;;;2.42;1.80;;;26.90;96.20;;;;;;4938115;29;20098;-89
2021/07/12 10:46:40;;;;;;;2.92;1.50;;;27.10;96.50;;;;;;4955506;29;20031;-89
2021/07/12 10:50:12;;;;;;;3.08;1.45;;;27.30;96.70;;;;;;4938334;29;20031;-88
2021/07/12 10:52:42;;;;;;;2.50;1.40;;;27.40;96.40;;;;;;4952883;29;20118;-87
2021/07/12 10:55:39;;;;;;;1.95;1.42;;;27.60;96.10;;;;;;4941001;29;20027;-91
2021/07/12 10:58:24;;;;;;;3.22;1.60;;;27.70;96.20;;;;;;4958606;29;20024;-90
2021/07/12 11:00:50;;;;;;;2.28;1.52;;;27.80;96.10;;;;;;4943127;28;20030;-89
2021/07/12 11:03:39;;;;;;;1.40;1.23;;;27.90;96.00;;;;;;4946723;29;20095;-90
2021/07/12 11:06:16;;;;;;;1.90;1.55;;;27.90;95.70;;;;;;4933900;29;20035;-89
2021/07/12 11:08:59;;;;;;;3.88;1.63;;;27.90;95.90;;;;;;4943728;29;20043;-88
2021/07/12 11:11:25;;;;;;;1.60;1.48;;;28.10;96.20;;;;;;4944884;29;20030;-89
2021/07/12 11:13:51;;;;;;;11.32;1.90;;;28.30;96.10;;;;;;4946506;29;20108;-90
2021/07/12 11:16:24;;;;;;;1.55;1.45;;;28.50;96.20;;;;;;4945271;29;20030;-89
2021/07/12 11:18:53;;;;;;;2.47;1.40;;;28.70;96.20;;;;;;4943407;29;20547;-90
2021/07/12 11:21:34;;;;;;;1.58;1.40;;;29.00;96.70;;;;;;4944387;29;20035;-91
2021/07/12 11:24:22;;;;;;;;;;;;;;;;;;;;;
2021/07/12 11:26:50;;;;;;;1.48;1.13;;;30.00;97.00;;;;;;4954984;29;20027;-91
2021/07/12 11:29:56;;;;;;;1.52;1.15;;;30.60;97.10;;;;;;4924958;29;20464;-90
2021/07/12 11:32:44;;;;;;;1.63;1.20;;;31.30;97.90;;;;;;4940182;29;20115;-91
2021/07/12 11:35:14;;;;;;;3.17;1.33;;;32.30;97.80;;;;;;4949654;29;20483;-90
2021/07/12 11:38:09;;;;;;;1.27;1.13;;;32.90;97.50;;;;;;4943877;29;20483;-88
2021/07/12 11:40:39;;;;;;;1.73;1.20;;;33.60;97.50;;;;;;4947097;29;20047;-87
2021/07/12 11:43:04;;;;;;;1.70;1.15;;;34.30;97.40;;;;;;4944213;29;20130;-88
2021/07/12 11:45:30;;;;;;;3.28;1.50;;;34.90;97.10;;;;;;4960235;29;20055;-89
2021/07/12 11:47:56;;;;;;;1.10;1.10;;;35.50;96.40;;;;;;4944063;29;20043;-89
2021/07/12 11:50:27;;;;;;;3.13;1.23;;;35.90;97.00;;;;;;4958962;29;20383;-88
2021/07/12 11:52:56;;;;;;;2.95;1.30;;;36.60;97.40;;;;;;4960388;29;20030;-88
2021/07/12 11:55:27;;;;;;;2.08;1.08;;;37.10;96.40;;;;;;4960468;29;20177;-89
2021/07/12 11:57:56;;;;;;;1.13;1.10;;;37.70;96.50;;;;;;4959673;29;20106;-87
2021/07/12 12:00:32;;;;;;;3.05;1.17;;;38.30;96.40;;;;;;4961465;29;20024;-88
2021/07/12 12:03:04;;;;;;;1.23;0.95;;;38.80;95.40;;;;;;4942787;29;20019;-89
2021/07/12 12:05:34;;;;;;;1.35;1.25;;;39.50;95.40;;;;;;4960401;29;20035;-89
2021/07/12 12:08:01;;;;;;;1.13;1.00;;;39.40;93.80;;;;;;4942952;29;20502;-89
2021/07/12 12:10:28;;;;;;;1.17;1.05;;;39.60;94.90;;;;;;4958894;29;20068;-88
2021/07/12 12:12:58;;;;;;;1.27;1.20;;;40.10;94.10;;;;;;4941167;29;20047;-89
2021/07/12 12:15:28;;;;;;;1.92;1.83;;;40.50;93.50;;;;;;4959899;29;20027;-88
2021/07/12 12:17:57;;;;;;;1.15;1.15;;;40.80;93.60;;;;;;4961716;29;20475;-87
2021/07/12 12:20:25;;;;;;;1.40;1.30;;;40.40;91.10;;;;;;4942773;29;20448;-88
2021/07/12 12:23:08;;;;;;;1.38;1.17;;;40.00;92.40;;;;;;4960557;29;20031;-87
2021/07/12 12:25:40;;;;;;;0.90;0.90;;;40.70;95.30;;;;;;4960392;29;20038;-88
2021/07/12 12:28:06;;;;;;;1.20;1.10;;;41.50;94.50;;;;;;4960606;29;20058;-88
2021/07/12 12:30:40;;;;;;;1.40;1.30;;;42.20;93.90;;;;;;4960447;29;20263;-88
2021/07/12 12:33:08;;;;;;;1.40;1.30;;;42.80;93.80;;;;;;4960731;29;20042;-88
2021/07/12 12:35:34;;;;;;;1.25;1.15;;;43.70;93.40;;;;;;4954230;29;20027;-89
2021/07/12 12:38:14;;;;;;;1.35;1.27;;;43.90;92.90;;;;;;4959057;29;20052;-88
2021/07/12 12:40:41;;;;;;;2.00;1.35;;;44.10;92.60;;;;;;4961789;29;20024;-88
2021/07/12 12:43:12;;;;;;;2.97;1.20;;;44.20;89.90;;;;;;4947811;29;20030;-88
2021/07/12 12:45:47;;;;;;;3.08;1.60;;;43.30;84.10;;;;;;4961677;29;20031;-87
2021/07/12 12:48:30;;;;;;;1.65;1.30;;;42.80;91.60;;;;;;4942486;29;20034;-88
2021/07/12 12:50:57;;;;;;;1.52;1.42;;;43.70;93.90;;;;;;4960470;29;20563;-88
2021/07/12 12:53:30;;;;;;;1.55;1.45;;;44.50;92.70;;;;;;4942060;29;20126;-88
2021/07/12 12:55:56;;;;;;;2.20;1.35;;;45.30;92.30;;;;;;4959861;29;20065;-88
2021/07/12 12:58:26;;;;;;;2.63;1.50;;;45.80;91.10;;;;;;4958979;29;20095;-88
2021/07/12 13:00:52;;;;;;;1.60;1.50;;;46.30;91.20;;;;;;4959662;29;20503;-89
2021/07/12 13:03:18;;;;;;;1.70;1.60;;;46.90;91.50;;;;;;4959821;29;20034;-89
2021/07/12 13:05:59;;;;;;;1.70;1.60;;;47.50;89.20;;;;;;4958536;29;20058;-89
2021/07/12 13:08:27;;;;;;;1.80;1.70;;;47.50;90.40;;;;;;4959057;29;20042;-89
2021/07/12 13:11:03;;;;;;;1.77;1.67;;;47.80;89.10;;;;;;4959615;29;20027;-88
2021/07/12 13:13:31;;;;;;;1.35;1.35;;;47.90;90.10;;;;;;4958343;29;20030;-88
2021/07/12 13:16:14;;;;;;;1.77;1.65;;;48.10;86.40;;;;;;4957075;29;20031;-88
2021/07/12 13:18:39;;;;;;;1.80;1.70;;;47.80;89.70;;;;;;4959027;29;20126;-88
2021/07/12 13:21:05;;;;;;;1.90;1.80;;;47.70;85.00;;;;;;4959309;29;20055;-89
2021/07/12 13:23:31;;;;;;;1.80;1.70;;;48.20;88.30;;;;;;4958650;29;20161;-89
2021/07/12 13:26:07;;;;;;;3.28;1.80;;;48.40;87.00;;;;;;4958284;28;20023;-89
2021/07/12 13:28:32;;;;;;;1.83;1.73;;;48.60;87.30;;;;;;4959535;29;20035;-89
2021/07/12 13:31:02;;;;;;;2.00;1.80;;;48.80;86.50;;;;;;4958764;29;20380;-89
2021/07/12 13:33:28;;;;;;;1.90;1.80;;;48.90;83.80;;;;;;4941258;29;20034;-89
2021/07/12 13:35:56;;;;;;;2.13;1.90;;;49.40;87.30;;;;;;4938135;29;20496;-88
2021/07/12 13:38:22;;;;;;;3.22;1.90;;;49.70;84.90;;;;;;4941582;29;20090;-89
2021/07/12 13:40:48;;;;;;;2.13;1.98;;;49.60;83.60;;;;;;4941717;29;20039;-89
2021/07/12 13:43:15;;;;;;;2.00;1.90;;;49.60;83.00;;;;;;4958313;29;20033;-88
2021/07/12 13:45:43;;;;;;;3.05;1.95;;;49.70;82.60;;;;;;4958475;29;20071;-88
2021/07/12 13:48:10;;;;;;;2.75;1.83;;;50.00;82.60;;;;;;4958388;29;20071;-89
2021/07/12 13:50:37;;;;;;;2.15;1.95;;;50.50;85.30;;;;;;4941237;29;20027;-88
2021/07/12 13:53:05;;;;;;;2.30;2.10;;;50.90;82.70;;;;;;4942022;29;20196;-88
2021/07/12 13:55:33;;;;;;;2.30;2.10;;;51.30;79.70;;;;;;4958216;29;20027;-88
2021/07/12 13:58:02;;;;;;;2.40;2.20;;;51.70;79.80;;;;;;4957830;29;20055;-88
2021/07/12 14:00:29;;;;;;;2.50;2.30;;;52.00;80.80;;;;;;4940638;29;20031;-90
2021/07/12 14:02:55;;;;;;;2.80;2.40;;;52.10;76.80;;;;;;4939827;29;20102;-85
2021/07/12 14:05:23;;;;;;;2.30;2.10;;;52.40;81.10;;;;;;4940018;29;20050;-85
2021/07/12 14:07:50;;;;;;;1.90;1.80;;;52.50;76.40;;;;;;4958186;29;20469;-88
2021/07/12 14:10:19;;;;;;;1.80;1.70;;;51.70;71.20;;;;;;4956890;29;20038;-88
2021/07/12 14:12:47;;;;;;;2.28;1.80;;;50.30;70.50;;;;;;4940525;29;20501;-88
2021/07/12 14:15:18;;;;;;;3.33;1.58;;;49.10;73.50;;;;;;4957373;29;20038;-88